Terminal Aerodrome Forecast
Issued by NWS

Home | Current Version | Previous Version | Text Only | Print | Product List | Glossary Off
Versions: 1 2 3 4 5 6 7 8 9 10 11 12 13 14 15 16 17

186
FTUS43 KIWX 061949 AAA
TAFSBN
TAF AMD
KSBN 061949Z 0620/0718 VRB04KT P6SM OVC080
     FM062200 27009KT P6SM SCT008 OVC015
     FM070200 26011KT P6SM SCT030 BKN150=

USA.gov is the U.S. government's official web portal to all federal, state and local government web resources and services.